< Cyclone 197001 1970 Season Cyclone 197003 >
Cyclone 197002 (ADA)
General InformationTrack Information on Google Maps || ResourceGoogle EarthGE AnimationAtom FeedGeoJSON
Detalied Best Track (Time Zone = UTC)
Year Month Day Hour Lat. Long. Pressure (hPa) Wind (kt) Class Image Chart
1970 1 2 23 -15.7 165.1 1002 0 0 -- --
1970 1 3 11 -16.0 163.5 1002 0 0 -- --
1970 1 3 23 -16.3 162.1 1002 0 0 -- --
1970 1 4 11 -16.7 160.6 1002 0 0 -- --
1970 1 4 23 -16.9 159.2 1002 0 0 -- --
1970 1 5 11 -16.9 158.0 1002 0 0 -- --
1970 1 5 23 -16.6 156.6 1003 0 0 -- --
1970 1 6 11 -16.3 156.2 1003 0 0 -- --
1970 1 6 23 -15.9 155.9 1004 0 0 -- --
1970 1 7 11 -15.4 155.9 1004 0 0 -- --
1970 1 7 23 -14.9 156.0 1004 0 0 -- --
1970 1 8 11 -14.7 156.1 1004 0 0 -- --
1970 1 8 23 -14.1 156.4 1004 0 0 -- --
1970 1 9 11 -13.8 156.7 1004 0 0 -- --
1970 1 9 23 -12.9 157.7 1004 0 0 -- --
1970 1 10 11 -12.3 158.6 1004 0 0 -- --
1970 1 10 23 -11.9 159.7 1004 0 0 -- --
1970 1 11 11 -11.5 160.7 1004 0 0 -- --
1970 1 11 23 -11.3 161.8 1004 0 0 -- --
1970 1 12 11 -11.6 162.9 1004 0 0 -- --
1970 1 12 17 -11.9 163.3 1004 0 0 -- --
1970 1 12 23 -12.3 163.4 1004 0 0 -- --
1970 1 13 11 -13.4 163.1 1004 0 0 -- --
1970 1 13 23 -14.2 162.4 1004 0 0 -- --
1970 1 14 11 -15.1 161.4 1004 0 0 -- --
1970 1 14 23 -15.8 160.2 1004 0 0 -- --
1970 1 15 11 -17.1 158.0 1004 0 0 -- --
1970 1 15 23 -18.1 155.8 1004 0 0 -- --
1970 1 16 08 -18.7 154.2 996 0 0 -- --
1970 1 16 11 -18.8 153.5 992 0 0 -- --
1970 1 16 14 -19.0 152.8 985 0 0 -- --
1970 1 16 23 -19.5 151.0 972 0 0 -- --
1970 1 17 11 -19.8 149.3 963 0 0 -- --
1970 1 17 13 -19.9 149.1 962 0 0 -- --
1970 1 17 15 -20.0 149.0 962 0 0 -- --
1970 1 17 17 -20.1 148.9 962 0 0 -- --
1970 1 17 23 -20.4 148.7 964 0 0 -- --
1970 1 18 05 -20.7 148.5 982 0 0 -- --
1970 1 18 08 -20.9 148.5 996 0 0 -- --
1970 1 18 11 -21.0 148.5 998 0 0 -- --
< Cyclone 197001 1970 Season Cyclone 197003 >

Help